sensor_id;sensor_type;location;lat;lon;timestamp;temperature;humidity
4431;DHT22;2228;48.140;11.488;2023-05-10T00:00:54;13.40;99.90
4431;DHT22;2228;48.140;11.488;2023-05-10T00:03:23;13.40;1.00
4431;DHT22;2228;48.140;11.488;2023-05-10T00:05:50;13.20;99.90
4431;DHT22;2228;48.140;11.488;2023-05-10T00:08:18;13.10;99.90
4431;DHT22;2228;48.140;11.488;2023-05-10T00:10:45;13.20;99.90
4431;DHT22;2228;48.140;11.488;2023-05-10T00:13:12;13.20;99.90
4431;DHT22;2228;48.140;11.488;2023-05-10T00:15:39;13.20;99.90
4431;DHT22;2228;48.140;11.488;2023-05-10T00:18:06;13.10;99.90
4431;DHT22;2228;48.140;11.488;2023-05-10T00:20:34;13.10;99.90
4431;DHT22;2228;48.140;11.488;2023-05-10T00:23:01;13.20;99.90
4431;DHT22;2228;48.140;11.488;2023-05-10T00:25:28;13.10;99.90
4431;DHT22;2228;48.140;11.488;2023-05-10T00:27:55;13.10;99.90
4431;DHT22;2228;48.140;11.488;2023-05-10T00:30:23;13.20;99.90
4431;DHT22;2228;48.140;11.488;2023-05-10T00:32:50;13.20;99.90
4431;DHT22;2228;48.140;11.488;2023-05-10T00:35:17;13.20;99.90
4431;DHT22;2228;48.140;11.488;2023-05-10T00:37:45;13.20;99.90
4431;DHT22;2228;48.140;11.488;2023-05-10T00:40:12;13.10;99.90
4431;DHT22;2228;48.140;11.488;2023-05-10T00:42:39;13.10;99.90
4431;DHT22;2228;48.140;11.488;2023-05-10T00:45:07;13.10;99.90
4431;DHT22;2228;48.140;11.488;2023-05-10T00:47:34;13.20;99.90
4431;DHT22;2228;48.140;11.488;2023-05-10T00:50:01;13.30;1.00
4431;DHT22;2228;48.140;11.488;2023-05-10T00:52:29;13.30;67.10
4431;DHT22;2228;48.140;11.488;2023-05-10T00:54:58;13.30;54.30
4431;DHT22;2228;48.140;11.488;2023-05-10T00:57:25;13.20;37.50
4431;DHT22;2228;48.140;11.488;2023-05-10T00:59:51;13.30;14.50
4431;DHT22;2228;48.140;11.488;2023-05-10T01:02:18;13.30;1.00
4431;DHT22;2228;48.140;11.488;2023-05-10T01:04:45;13.30;1.00
4431;DHT22;2228;48.140;11.488;2023-05-10T01:07:12;13.20;1.00
4431;DHT22;2228;48.140;11.488;2023-05-10T01:09:39;13.20;38.90
4431;DHT22;2228;48.140;11.488;2023-05-10T01:12:08;13.20;1.00
4431;DHT22;2228;48.140;11.488;2023-05-10T01:14:35;13.00;99.90
4431;DHT22;2228;48.140;11.488;2023-05-10T01:17:03;13.00;99.90
4431;DHT22;2228;48.140;11.488;2023-05-10T01:19:31;13.00;39.00
4431;DHT22;2228;48.140;11.488;2023-05-10T01:22:08;13.10;17.10
4431;DHT22;2228;48.140;11.488;2023-05-10T01:25:04;13.10;28.60
4431;DHT22;2228;48.140;11.488;2023-05-10T01:27:58;13.00;99.90
4431;DHT22;2228;48.140;11.488;2023-05-10T01:31:05;13.20;1.00
4431;DHT22;2228;48.140;11.488;2023-05-10T01:33:39;13.10;1.00
4431;DHT22;2228;48.140;11.488;2023-05-10T01:36:15;13.00;1.00
4431;DHT22;2228;48.140;11.488;2023-05-10T01:38:49;13.00;99.90
4431;DHT22;2228;48.140;11.488;2023-05-10T01:41:19;13.10;1.00
4431;DHT22;2228;48.140;11.488;2023-05-10T01:43:53;13.00;99.90
4431;DHT22;2228;48.140;11.488;2023-05-10T01:46:27;13.20;1.00
4431;DHT22;2228;48.140;11.488;2023-05-10T01:48:58;13.20;1.00
4431;DHT22;2228;48.140;11.488;2023-05-10T01:51:31;13.20;1.00
4431;DHT22;2228;48.140;11.488;2023-05-10T01:54:02;13.10;1.00
4431;DHT22;2228;48.140;11.488;2023-05-10T01:56:32;13.00;1.00
4431;DHT22;2228;48.140;11.488;2023-05-10T01:59:00;13.00;1.00
4431;DHT22;2228;48.140;11.488;2023-05-10T02:01:32;13.00;1.00
4431;DHT22;2228;48.140;11.488;2023-05-10T02:04:02;12.90;1.00
4431;DHT22;2228;48.140;11.488;2023-05-10T02:06:30;12.90;99.90
4431;DHT22;2228;48.140;11.488;2023-05-10T02:09:00;12.90;1.00
4431;DHT22;2228;48.140;11.488;2023-05-10T02:11:28;13.00;43.90
4431;DHT22;2228;48.140;11.488;2023-05-10T02:13:57;12.90;1.00
4431;DHT22;2228;48.140;11.488;2023-05-10T02:16:26;12.80;92.90
4431;DHT22;2228;48.140;11.488;2023-05-10T02:18:57;12.90;86.80
4431;DHT22;2228;48.140;11.488;2023-05-10T02:21:28;12.80;1.70
4431;DHT22;2228;48.140;11.488;2023-05-10T02:23:57;12.70;99.90
4431;DHT22;2228;48.140;11.488;2023-05-10T02:26:25;12.70;99.90
4431;DHT22;2228;48.140;11.488;2023-05-10T02:28:53;12.60;99.90
4431;DHT22;2228;48.140;11.488;2023-05-10T02:31:20;12.60;99.90
4431;DHT22;2228;48.140;11.488;2023-05-10T02:33:49;12.70;99.90
4431;DHT22;2228;48.140;11.488;2023-05-10T02:36:16;12.70;99.90
4431;DHT22;2228;48.140;11.488;2023-05-10T02:38:46;12.60;99.90
4431;DHT22;2228;48.140;11.488;2023-05-10T02:41:14;12.70;99.90
4431;DHT22;2228;48.140;11.488;2023-05-10T02:43:42;12.80;99.90
4431;DHT22;2228;48.140;11.488;2023-05-10T02:46:09;12.70;99.90
4431;DHT22;2228;48.140;11.488;2023-05-10T02:48:36;12.60;99.90
4431;DHT22;2228;48.140;11.488;2023-05-10T02:51:06;12.60;99.90
4431;DHT22;2228;48.140;11.488;2023-05-10T02:53:36;12.60;99.90
4431;DHT22;2228;48.140;11.488;2023-05-10T02:56:12;12.70;99.90
4431;DHT22;2228;48.140;11.488;2023-05-10T02:58:40;12.80;99.90
4431;DHT22;2228;48.140;11.488;2023-05-10T03:01:07;12.80;99.90
4431;DHT22;2228;48.140;11.488;2023-05-10T03:03:34;12.90;99.90
4431;DHT22;2228;48.140;11.488;2023-05-10T03:06:01;13.00;1.00
4431;DHT22;2228;48.140;11.488;2023-05-10T03:08:28;12.90;1.00
4431;DHT22;2228;48.140;11.488;2023-05-10T03:11:08;12.80;86.70
4431;DHT22;2228;48.140;11.488;2023-05-10T03:13:44;12.90;82.30
4431;DHT22;2228;48.140;11.488;2023-05-10T03:16:16;12.90;17.70
4431;DHT22;2228;48.140;11.488;2023-05-10T03:18:53;12.90;1.00
4431;DHT22;2228;48.140;11.488;2023-05-10T03:21:22;12.90;1.00
4431;DHT22;2228;48.140;11.488;2023-05-10T03:23:59;12.90;1.00
4431;DHT22;2228;48.140;11.488;2023-05-10T03:26:27;12.80;99.90
4431;DHT22;2228;48.140;11.488;2023-05-10T03:28:57;12.90;1.00
4431;DHT22;2228;48.140;11.488;2023-05-10T03:31:25;12.90;24.50
4431;DHT22;2228;48.140;11.488;2023-05-10T03:33:52;12.80;1.00
4431;DHT22;2228;48.140;11.488;2023-05-10T03:36:19;12.80;99.90
4431;DHT22;2228;48.140;11.488;2023-05-10T03:38:46;12.80;99.90
4431;DHT22;2228;48.140;11.488;2023-05-10T03:41:13;12.70;67.80
4431;DHT22;2228;48.140;11.488;2023-05-10T03:43:40;12.70;99.90
4431;DHT22;2228;48.140;11.488;2023-05-10T03:46:09;12.80;60.10
4431;DHT22;2228;48.140;11.488;2023-05-10T03:48:36;12.80;15.60
4431;DHT22;2228;48.140;11.488;2023-05-10T03:51:03;12.80;82.50
4431;DHT22;2228;48.140;11.488;2023-05-10T03:53:30;12.80;22.80
4431;DHT22;2228;48.140;11.488;2023-05-10T03:55:57;12.90;99.90
4431;DHT22;2228;48.140;11.488;2023-05-10T03:58:23;12.80;65.40
4431;DHT22;2228;48.140;11.488;2023-05-10T04:00:51;12.80;1.00
4431;DHT22;2228;48.140;11.488;2023-05-10T04:03:19;12.80;99.60
4431;DHT22;2228;48.140;11.488;2023-05-10T04:05:46;12.90;99.90
4431;DHT22;2228;48.140;11.488;2023-05-10T04:08:13;12.90;1.00
4431;DHT22;2228;48.140;11.488;2023-05-10T04:10:42;12.80;99.90
4431;DHT22;2228;48.140;11.488;2023-05-10T04:13:09;12.70;57.30
4431;DHT22;2228;48.140;11.488;2023-05-10T04:15:36;12.80;99.90
4431;DHT22;2228;48.140;11.488;2023-05-10T04:18:03;12.90;99.90
4431;DHT22;2228;48.140;11.488;2023-05-10T04:20:32;13.00;99.90
4431;DHT22;2228;48.140;11.488;2023-05-10T04:22:59;13.00;68.20
4431;DHT22;2228;48.140;11.488;2023-05-10T04:25:26;13.00;1.00
4431;DHT22;2228;48.140;11.488;2023-05-10T04:27:53;13.10;1.00
4431;DHT22;2228;48.140;11.488;2023-05-10T04:30:20;13.00;1.00
4431;DHT22;2228;48.140;11.488;2023-05-10T04:32:47;12.90;1.00
4431;DHT22;2228;48.140;11.488;2023-05-10T04:35:14;12.90;99.90
4431;DHT22;2228;48.140;11.488;2023-05-10T04:37:42;13.00;38.20
4431;DHT22;2228;48.140;11.488;2023-05-10T04:40:10;13.00;1.00
4431;DHT22;2228;48.140;11.488;2023-05-10T04:42:39;12.90;1.00
4431;DHT22;2228;48.140;11.488;2023-05-10T04:45:07;12.90;1.00
4431;DHT22;2228;48.140;11.488;2023-05-10T04:47:34;12.70;1.00
4431;DHT22;2228;48.140;11.488;2023-05-10T04:50:02;12.60;1.00
4431;DHT22;2228;48.140;11.488;2023-05-10T04:52:29;12.60;1.00
4431;DHT22;2228;48.140;11.488;2023-05-10T04:54:59;12.50;1.00
4431;DHT22;2228;48.140;11.488;2023-05-10T04:57:27;12.40;1.00
4431;DHT22;2228;48.140;11.488;2023-05-10T04:59:54;12.50;1.00
4431;DHT22;2228;48.140;11.488;2023-05-10T05:02:20;12.50;1.00
4431;DHT22;2228;48.140;11.488;2023-05-10T05:04:49;12.50;1.00
4431;DHT22;2228;48.140;11.488;2023-05-10T05:07:16;12.50;1.00
4431;DHT22;2228;48.140;11.488;2023-05-10T05:09:43;12.40;1.00
4431;DHT22;2228;48.140;11.488;2023-05-10T05:12:12;12.30;1.00
4431;DHT22;2228;48.140;11.488;2023-05-10T05:14:39;12.30;1.00
4431;DHT22;2228;48.140;11.488;2023-05-10T05:17:06;12.30;99.90
4431;DHT22;2228;48.140;11.488;2023-05-10T05:19:34;12.30;49.30
4431;DHT22;2228;48.140;11.488;2023-05-10T05:22:01;12.30;99.90
4431;DHT22;2228;48.140;11.488;2023-05-10T05:24:28;12.30;30.00
4431;DHT22;2228;48.140;11.488;2023-05-10T05:26:54;12.40;95.00
4431;DHT22;2228;48.140;11.488;2023-05-10T05:29:22;12.30;27.20
4431;DHT22;2228;48.140;11.488;2023-05-10T05:31:49;12.30;99.90
4431;DHT22;2228;48.140;11.488;2023-05-10T05:34:16;12.30;99.90
4431;DHT22;2228;48.140;11.488;2023-05-10T05:36:43;12.30;65.60
4431;DHT22;2228;48.140;11.488;2023-05-10T05:39:10;12.20;99.50
4431;DHT22;2228;48.140;11.488;2023-05-10T05:41:37;12.10;99.90
4431;DHT22;2228;48.140;11.488;2023-05-10T05:44:04;12.10;99.90
4431;DHT22;2228;48.140;11.488;2023-05-10T05:46:32;12.10;88.40
4431;DHT22;2228;48.140;11.488;2023-05-10T05:48:59;12.00;95.30
4431;DHT22;2228;48.140;11.488;2023-05-10T05:51:27;12.20;99.90
4431;DHT22;2228;48.140;11.488;2023-05-10T05:53:53;12.20;99.90
4431;DHT22;2228;48.140;11.488;2023-05-10T05:56:20;12.20;1.00
4431;DHT22;2228;48.140;11.488;2023-05-10T05:58:49;12.20;1.00
4431;DHT22;2228;48.140;11.488;2023-05-10T06:01:16;12.30;1.00
4431;DHT22;2228;48.140;11.488;2023-05-10T06:03:45;12.20;29.10
4431;DHT22;2228;48.140;11.488;2023-05-10T06:06:11;12.40;1.00
4431;DHT22;2228;48.140;11.488;2023-05-10T06:08:39;12.60;1.00
4431;DHT22;2228;48.140;11.488;2023-05-10T06:11:05;12.60;1.00
4431;DHT22;2228;48.140;11.488;2023-05-10T06:13:32;12.60;1.00
4431;DHT22;2228;48.140;11.488;2023-05-10T06:16:00;12.60;1.00
4431;DHT22;2228;48.140;11.488;2023-05-10T06:18:27;12.60;1.00
4431;DHT22;2228;48.140;11.488;2023-05-10T06:20:56;12.80;1.00
4431;DHT22;2228;48.140;11.488;2023-05-10T06:23:23;12.90;1.00
4431;DHT22;2228;48.140;11.488;2023-05-10T06:25:51;13.00;99.90
4431;DHT22;2228;48.140;11.488;2023-05-10T06:28:18;12.80;1.00
4431;DHT22;2228;48.140;11.488;2023-05-10T06:30:44;12.90;1.00
4431;DHT22;2228;48.140;11.488;2023-05-10T06:33:11;13.00;1.00
4431;DHT22;2228;48.140;11.488;2023-05-10T06:35:38;13.00;99.90
4431;DHT22;2228;48.140;11.488;2023-05-10T06:38:06;13.10;99.90
4431;DHT22;2228;48.140;11.488;2023-05-10T06:40:33;13.30;99.90
4431;DHT22;2228;48.140;11.488;2023-05-10T06:43:01;13.30;99.90
4431;DHT22;2228;48.140;11.488;2023-05-10T06:45:28;13.30;99.90
4431;DHT22;2228;48.140;11.488;2023-05-10T06:47:55;13.30;99.90
4431;DHT22;2228;48.140;11.488;2023-05-10T06:50:22;13.40;99.90
4431;DHT22;2228;48.140;11.488;2023-05-10T06:52:49;13.40;99.90
4431;DHT22;2228;48.140;11.488;2023-05-10T06:55:17;13.50;99.90
4431;DHT22;2228;48.140;11.488;2023-05-10T06:57:44;13.40;99.90
4431;DHT22;2228;48.140;11.488;2023-05-10T07:00:11;13.60;1.00
4431;DHT22;2228;48.140;11.488;2023-05-10T07:02:38;13.60;1.00
4431;DHT22;2228;48.140;11.488;2023-05-10T07:05:06;13.80;99.90
4431;DHT22;2228;48.140;11.488;2023-05-10T07:07:33;14.00;57.50
4431;DHT22;2228;48.140;11.488;2023-05-10T07:10:00;14.30;1.00
4431;DHT22;2228;48.140;11.488;2023-05-10T07:12:28;14.40;1.00
4431;DHT22;2228;48.140;11.488;2023-05-10T07:14:55;14.40;1.00
4431;DHT22;2228;48.140;11.488;2023-05-10T07:17:22;14.60;1.00
4431;DHT22;2228;48.140;11.488;2023-05-10T07:19:49;14.70;1.00
4431;DHT22;2228;48.140;11.488;2023-05-10T07:22:16;14.70;99.90
4431;DHT22;2228;48.140;11.488;2023-05-10T07:24:43;14.60;1.00
4431;DHT22;2228;48.140;11.488;2023-05-10T07:27:10;14.50;1.00
4431;DHT22;2228;48.140;11.488;2023-05-10T07:29:38;14.70;99.90
4431;DHT22;2228;48.140;11.488;2023-05-10T07:32:05;14.80;99.90
4431;DHT22;2228;48.140;11.488;2023-05-10T07:34:33;14.80;1.00
4431;DHT22;2228;48.140;11.488;2023-05-10T07:36:59;15.00;1.00
4431;DHT22;2228;48.140;11.488;2023-05-10T07:39:27;15.10;99.90
4431;DHT22;2228;48.140;11.488;2023-05-10T07:41:54;15.20;99.90
4431;DHT22;2228;48.140;11.488;2023-05-10T07:44:21;15.30;99.90
4431;DHT22;2228;48.140;11.488;2023-05-10T07:46:49;15.60;99.90
4431;DHT22;2228;48.140;11.488;2023-05-10T07:49:16;15.80;99.90
4431;DHT22;2228;48.140;11.488;2023-05-10T07:51:43;16.10;99.90
4431;DHT22;2228;48.140;11.488;2023-05-10T07:54:10;15.90;17.90
4431;DHT22;2228;48.140;11.488;2023-05-10T07:56:38;15.90;79.40
4431;DHT22;2228;48.140;11.488;2023-05-10T07:59:06;15.80;99.90
4431;DHT22;2228;48.140;11.488;2023-05-10T08:01:34;15.80;21.60
4431;DHT22;2228;48.140;11.488;2023-05-10T08:04:02;15.70;61.30
4431;DHT22;2228;48.140;11.488;2023-05-10T08:06:29;15.50;70.40
4431;DHT22;2228;48.140;11.488;2023-05-10T08:08:56;15.40;70.00
4431;DHT22;2228;48.140;11.488;2023-05-10T08:11:23;15.20;99.90
4431;DHT22;2228;48.140;11.488;2023-05-10T08:13:50;15.30;99.90
4431;DHT22;2228;48.140;11.488;2023-05-10T08:16:18;15.30;99.90
4431;DHT22;2228;48.140;11.488;2023-05-10T08:18:45;15.30;99.90
4431;DHT22;2228;48.140;11.488;2023-05-10T08:21:14;15.30;99.90
4431;DHT22;2228;48.140;11.488;2023-05-10T08:23:42;15.40;99.90
4431;DHT22;2228;48.140;11.488;2023-05-10T08:26:09;15.50;99.90
4431;DHT22;2228;48.140;11.488;2023-05-10T08:28:36;15.50;99.90
4431;DHT22;2228;48.140;11.488;2023-05-10T08:31:03;15.40;68.60
4431;DHT22;2228;48.140;11.488;2023-05-10T08:33:31;15.30;73.00
4431;DHT22;2228;48.140;11.488;2023-05-10T08:35:57;15.40;75.80
4431;DHT22;2228;48.140;11.488;2023-05-10T08:38:26;15.60;47.20
4431;DHT22;2228;48.140;11.488;2023-05-10T08:40:54;15.60;99.90
4431;DHT22;2228;48.140;11.488;2023-05-10T08:43:26;15.80;92.10
4431;DHT22;2228;48.140;11.488;2023-05-10T08:45:55;15.80;1.00
4431;DHT22;2228;48.140;11.488;2023-05-10T08:48:24;15.60;29.80
4431;DHT22;2228;48.140;11.488;2023-05-10T08:50:53;15.50;82.00
4431;DHT22;2228;48.140;11.488;2023-05-10T08:53:22;15.20;99.90
4431;DHT22;2228;48.140;11.488;2023-05-10T08:55:52;15.40;90.20
4431;DHT22;2228;48.140;11.488;2023-05-10T08:58:19;15.50;83.40
4431;DHT22;2228;48.140;11.488;2023-05-10T09:00:48;15.90;99.90
4431;DHT22;2228;48.140;11.488;2023-05-10T09:03:15;16.80;1.00
4431;DHT22;2228;48.140;11.488;2023-05-10T09:05:43;17.50;1.00
4431;DHT22;2228;48.140;11.488;2023-05-10T09:08:11;17.60;1.00
4431;DHT22;2228;48.140;11.488;2023-05-10T09:10:41;17.80;1.00
4431;DHT22;2228;48.140;11.488;2023-05-10T09:13:11;17.50;1.00
4431;DHT22;2228;48.140;11.488;2023-05-10T09:15:38;17.40;1.00
4431;DHT22;2228;48.140;11.488;2023-05-10T09:18:05;16.70;1.00
4431;DHT22;2228;48.140;11.488;2023-05-10T09:20:32;16.40;1.00
4431;DHT22;2228;48.140;11.488;2023-05-10T09:22:59;16.00;1.00
4431;DHT22;2228;48.140;11.488;2023-05-10T09:25:27;15.80;1.00
4431;DHT22;2228;48.140;11.488;2023-05-10T09:27:55;15.90;1.00
4431;DHT22;2228;48.140;11.488;2023-05-10T09:30:27;15.80;1.00
4431;DHT22;2228;48.140;11.488;2023-05-10T09:32:55;15.80;1.00
4431;DHT22;2228;48.140;11.488;2023-05-10T09:35:24;15.90;1.00
4431;DHT22;2228;48.140;11.488;2023-05-10T09:37:53;16.00;1.00
4431;DHT22;2228;48.140;11.488;2023-05-10T09:40:22;16.30;1.00
4431;DHT22;2228;48.140;11.488;2023-05-10T09:42:54;16.50;1.00
4431;DHT22;2228;48.140;11.488;2023-05-10T09:45:22;16.90;1.00
4431;DHT22;2228;48.140;11.488;2023-05-10T09:47:56;17.10;1.00
4431;DHT22;2228;48.140;11.488;2023-05-10T09:50:23;17.00;1.00
4431;DHT22;2228;48.140;11.488;2023-05-10T09:52:53;17.00;1.00
4431;DHT22;2228;48.140;11.488;2023-05-10T09:55:21;17.10;1.00
4431;DHT22;2228;48.140;11.488;2023-05-10T09:57:59;17.20;1.00
4431;DHT22;2228;48.140;11.488;2023-05-10T10:00:28;17.40;1.00
4431;DHT22;2228;48.140;11.488;2023-05-10T10:03:05;17.70;1.00
4431;DHT22;2228;48.140;11.488;2023-05-10T10:05:35;18.20;1.00
4431;DHT22;2228;48.140;11.488;2023-05-10T10:08:04;18.30;1.00
4431;DHT22;2228;48.140;11.488;2023-05-10T10:10:32;18.20;1.00
4431;DHT22;2228;48.140;11.488;2023-05-10T10:13:01;18.00;1.00
4431;DHT22;2228;48.140;11.488;2023-05-10T10:15:30;18.00;1.00
4431;DHT22;2228;48.140;11.488;2023-05-10T10:17:59;18.30;1.00
4431;DHT22;2228;48.140;11.488;2023-05-10T10:20:30;18.70;1.00
4431;DHT22;2228;48.140;11.488;2023-05-10T10:22:57;18.70;1.00
4431;DHT22;2228;48.140;11.488;2023-05-10T10:25:25;19.00;1.00
4431;DHT22;2228;48.140;11.488;2023-05-10T10:28:04;19.80;1.00
4431;DHT22;2228;48.140;11.488;2023-05-10T10:30:37;20.60;1.00
4431;DHT22;2228;48.140;11.488;2023-05-10T10:36:13;21.20;1.00
4431;DHT22;2228;48.140;11.488;2023-05-10T10:39:00;20.60;1.00
4431;DHT22;2228;48.140;11.488;2023-05-10T10:41:31;19.10;1.00
4431;DHT22;2228;48.140;11.488;2023-05-10T10:44:23;18.60;1.00
4431;DHT22;2228;48.140;11.488;2023-05-10T10:46:59;18.00;1.00
4431;DHT22;2228;48.140;11.488;2023-05-10T10:49:29;17.40;1.00
4431;DHT22;2228;48.140;11.488;2023-05-10T10:52:22;16.90;1.00
4431;DHT22;2228;48.140;11.488;2023-05-10T10:54:52;16.40;1.00
4431;DHT22;2228;48.140;11.488;2023-05-10T10:57:21;15.90;1.00
4431;DHT22;2228;48.140;11.488;2023-05-10T10:59:48;15.60;57.90
4431;DHT22;2228;48.140;11.488;2023-05-10T11:02:42;15.30;99.90
4431;DHT22;2228;48.140;11.488;2023-05-10T11:05:36;15.00;99.90
4431;DHT22;2228;48.140;11.488;2023-05-10T11:08:10;14.70;1.00
4431;DHT22;2228;48.140;11.488;2023-05-10T11:10:37;14.50;1.00
4431;DHT22;2228;48.140;11.488;2023-05-10T11:13:06;14.40;1.00
4431;DHT22;2228;48.140;11.488;2023-05-10T11:15:34;14.30;1.00
4431;DHT22;2228;48.140;11.488;2023-05-10T11:18:16;14.20;1.00
4431;DHT22;2228;48.140;11.488;2023-05-10T11:20:43;14.10;1.00
4431;DHT22;2228;48.140;11.488;2023-05-10T11:23:14;14.00;1.00
4431;DHT22;2228;48.140;11.488;2023-05-10T11:25:43;13.60;1.00
4431;DHT22;2228;48.140;11.488;2023-05-10T11:28:11;13.30;1.00
4431;DHT22;2228;48.140;11.488;2023-05-10T11:30:39;13.00;75.70
4431;DHT22;2228;48.140;11.488;2023-05-10T11:33:06;12.90;99.90
4431;DHT22;2228;48.140;11.488;2023-05-10T11:35:38;12.90;1.00
4431;DHT22;2228;48.140;11.488;2023-05-10T11:38:06;12.70;1.00
4431;DHT22;2228;48.140;11.488;2023-05-10T11:40:35;12.60;1.00
4431;DHT22;2228;48.140;11.488;2023-05-10T11:43:02;12.60;1.00
4431;DHT22;2228;48.140;11.488;2023-05-10T11:45:31;12.60;99.90
4431;DHT22;2228;48.140;11.488;2023-05-10T11:47:59;12.60;99.90
4431;DHT22;2228;48.140;11.488;2023-05-10T11:50:27;12.40;99.90
4431;DHT22;2228;48.140;11.488;2023-05-10T11:52:55;12.40;99.90
4431;DHT22;2228;48.140;11.488;2023-05-10T11:55:22;12.30;99.90
4431;DHT22;2228;48.140;11.488;2023-05-10T11:57:53;12.20;99.90
4431;DHT22;2228;48.140;11.488;2023-05-10T12:00:21;12.20;99.90
4431;DHT22;2228;48.140;11.488;2023-05-10T12:02:48;12.30;99.90
4431;DHT22;2228;48.140;11.488;2023-05-10T12:05:15;12.20;99.90
4431;DHT22;2228;48.140;11.488;2023-05-10T12:07:43;12.10;99.90
4431;DHT22;2228;48.140;11.488;2023-05-10T12:10:12;12.10;1.00
4431;DHT22;2228;48.140;11.488;2023-05-10T12:12:41;12.20;99.90
4431;DHT22;2228;48.140;11.488;2023-05-10T12:15:17;12.10;99.90
4431;DHT22;2228;48.140;11.488;2023-05-10T12:17:45;12.10;1.00
4431;DHT22;2228;48.140;11.488;2023-05-10T12:20:14;12.20;1.00
4431;DHT22;2228;48.140;11.488;2023-05-10T12:22:43;12.30;1.00
4431;DHT22;2228;48.140;11.488;2023-05-10T12:25:10;12.30;1.00
4431;DHT22;2228;48.140;11.488;2023-05-10T12:27:37;12.40;99.90
4431;DHT22;2228;48.140;11.488;2023-05-10T12:30:05;12.40;1.00
4431;DHT22;2228;48.140;11.488;2023-05-10T12:32:41;12.40;1.00
4431;DHT22;2228;48.140;11.488;2023-05-10T12:35:08;12.40;1.00
4431;DHT22;2228;48.140;11.488;2023-05-10T12:37:35;12.60;1.00
4431;DHT22;2228;48.140;11.488;2023-05-10T12:40:09;12.60;99.90
4431;DHT22;2228;48.140;11.488;2023-05-10T12:42:39;12.70;99.90
4431;DHT22;2228;48.140;11.488;2023-05-10T12:45:07;12.70;99.90
4431;DHT22;2228;48.140;11.488;2023-05-10T12:47:35;12.80;99.90
4431;DHT22;2228;48.140;11.488;2023-05-10T12:50:04;12.90;99.90
4431;DHT22;2228;48.140;11.488;2023-05-10T12:52:31;13.00;99.90
4431;DHT22;2228;48.140;11.488;2023-05-10T12:54:59;13.00;99.90
4431;DHT22;2228;48.140;11.488;2023-05-10T12:57:27;13.00;99.90
4431;DHT22;2228;48.140;11.488;2023-05-10T12:59:54;13.10;99.90
4431;DHT22;2228;48.140;11.488;2023-05-10T13:02:21;13.20;99.90
4431;DHT22;2228;48.140;11.488;2023-05-10T13:04:49;13.20;99.90
4431;DHT22;2228;48.140;11.488;2023-05-10T13:07:17;13.20;99.90
4431;DHT22;2228;48.140;11.488;2023-05-10T13:09:44;13.10;99.90
4431;DHT22;2228;48.140;11.488;2023-05-10T13:12:11;13.20;99.90
4431;DHT22;2228;48.140;11.488;2023-05-10T13:14:37;13.20;99.90
4431;DHT22;2228;48.140;11.488;2023-05-10T13:17:06;13.00;99.90
4431;DHT22;2228;48.140;11.488;2023-05-10T13:19:35;13.00;99.90
4431;DHT22;2228;48.140;11.488;2023-05-10T13:22:02;12.90;99.90
4431;DHT22;2228;48.140;11.488;2023-05-10T13:24:31;12.70;99.90
4431;DHT22;2228;48.140;11.488;2023-05-10T13:26:58;12.80;99.90
4431;DHT22;2228;48.140;11.488;2023-05-10T13:29:24;12.90;99.90
4431;DHT22;2228;48.140;11.488;2023-05-10T13:31:51;12.70;99.90
4431;DHT22;2228;48.140;11.488;2023-05-10T13:34:18;12.80;99.90
4431;DHT22;2228;48.140;11.488;2023-05-10T13:36:46;12.70;1.00
4431;DHT22;2228;48.140;11.488;2023-05-10T13:39:14;12.50;1.00
4431;DHT22;2228;48.140;11.488;2023-05-10T13:41:42;12.70;1.00
4431;DHT22;2228;48.140;11.488;2023-05-10T13:44:12;12.90;99.90
4431;DHT22;2228;48.140;11.488;2023-05-10T13:46:39;12.80;99.90
4431;DHT22;2228;48.140;11.488;2023-05-10T13:49:06;12.70;1.00
4431;DHT22;2228;48.140;11.488;2023-05-10T13:51:33;12.60;1.00
4431;DHT22;2228;48.140;11.488;2023-05-10T13:54:01;12.60;1.00
4431;DHT22;2228;48.140;11.488;2023-05-10T13:56:28;12.60;1.00
4431;DHT22;2228;48.140;11.488;2023-05-10T13:58:57;12.70;1.00
4431;DHT22;2228;48.140;11.488;2023-05-10T14:01:24;12.80;1.00
4431;DHT22;2228;48.140;11.488;2023-05-10T14:03:51;12.80;99.90
4431;DHT22;2228;48.140;11.488;2023-05-10T14:06:17;12.80;99.90
4431;DHT22;2228;48.140;11.488;2023-05-10T14:08:44;12.90;99.90
4431;DHT22;2228;48.140;11.488;2023-05-10T14:11:11;12.90;99.90
4431;DHT22;2228;48.140;11.488;2023-05-10T14:13:38;12.90;1.00
4431;DHT22;2228;48.140;11.488;2023-05-10T14:16:07;12.80;1.00
4431;DHT22;2228;48.140;11.488;2023-05-10T14:18:33;13.00;99.90
4431;DHT22;2228;48.140;11.488;2023-05-10T14:21:02;12.80;99.90
4431;DHT22;2228;48.140;11.488;2023-05-10T14:23:28;13.00;99.90
4431;DHT22;2228;48.140;11.488;2023-05-10T14:25:56;12.90;99.90
4431;DHT22;2228;48.140;11.488;2023-05-10T14:28:23;13.00;99.90
4431;DHT22;2228;48.140;11.488;2023-05-10T14:30:53;12.90;99.90
4431;DHT22;2228;48.140;11.488;2023-05-10T14:33:22;12.80;99.90
4431;DHT22;2228;48.140;11.488;2023-05-10T14:35:48;12.60;99.90
4431;DHT22;2228;48.140;11.488;2023-05-10T14:38:15;12.60;99.90
4431;DHT22;2228;48.140;11.488;2023-05-10T14:40:43;12.70;99.90
4431;DHT22;2228;48.140;11.488;2023-05-10T14:43:10;12.50;99.90
4431;DHT22;2228;48.140;11.488;2023-05-10T14:45:37;12.50;99.90
4431;DHT22;2228;48.140;11.488;2023-05-10T14:48:04;12.40;99.90
4431;DHT22;2228;48.140;11.488;2023-05-10T14:50:32;12.40;99.90
4431;DHT22;2228;48.140;11.488;2023-05-10T14:52:59;12.50;99.90
4431;DHT22;2228;48.140;11.488;2023-05-10T14:55:27;12.50;99.90
4431;DHT22;2228;48.140;11.488;2023-05-10T14:57:54;12.30;99.90
4431;DHT22;2228;48.140;11.488;2023-05-10T15:00:22;12.30;99.90
4431;DHT22;2228;48.140;11.488;2023-05-10T15:02:49;12.30;1.00
4431;DHT22;2228;48.140;11.488;2023-05-10T15:05:16;12.30;1.00
4431;DHT22;2228;48.140;11.488;2023-05-10T15:07:44;12.20;1.00
4431;DHT22;2228;48.140;11.488;2023-05-10T15:10:11;12.30;1.00
4431;DHT22;2228;48.140;11.488;2023-05-10T15:12:39;12.30;1.00
4431;DHT22;2228;48.140;11.488;2023-05-10T15:15:07;12.30;99.90
4431;DHT22;2228;48.140;11.488;2023-05-10T15:17:34;12.10;99.90
4431;DHT22;2228;48.140;11.488;2023-05-10T15:20:01;12.00;1.00
4431;DHT22;2228;48.140;11.488;2023-05-10T15:22:29;12.10;1.00
4431;DHT22;2228;48.140;11.488;2023-05-10T15:24:58;12.10;99.90
4431;DHT22;2228;48.140;11.488;2023-05-10T15:27:25;12.10;1.00
4431;DHT22;2228;48.140;11.488;2023-05-10T15:29:52;12.10;99.90
4431;DHT22;2228;48.140;11.488;2023-05-10T15:32:19;12.00;1.00
4431;DHT22;2228;48.140;11.488;2023-05-10T15:34:47;12.10;1.00
4431;DHT22;2228;48.140;11.488;2023-05-10T15:37:14;12.10;99.90
4431;DHT22;2228;48.140;11.488;2023-05-10T15:39:42;12.00;99.90
4431;DHT22;2228;48.140;11.488;2023-05-10T15:42:10;11.90;1.00
4431;DHT22;2228;48.140;11.488;2023-05-10T15:44:37;11.90;1.00
4431;DHT22;2228;48.140;11.488;2023-05-10T15:47:04;11.80;99.90
4431;DHT22;2228;48.140;11.488;2023-05-10T15:49:32;11.80;1.00
4431;DHT22;2228;48.140;11.488;2023-05-10T15:51:59;11.70;1.00
4431;DHT22;2228;48.140;11.488;2023-05-10T15:54:27;11.80;1.00
4431;DHT22;2228;48.140;11.488;2023-05-10T15:56:55;11.80;1.00
4431;DHT22;2228;48.140;11.488;2023-05-10T15:59:24;11.80;1.00
4431;DHT22;2228;48.140;11.488;2023-05-10T16:01:51;11.80;1.00
4431;DHT22;2228;48.140;11.488;2023-05-10T16:04:18;11.80;99.90